Time;durP1;ratioP1;P1;durP2;ratioP2;P2;SDS_P1;SDS_P2;PMS_P1;PMS_P2;Temp;Humidity;BMP_temperature;BMP_pressure;BME280_temperature;BME280_humidity;BME280_pressure;Samples;Min_cycle;Max_cycle;Signal;HPM_P1;HPM_P2
2022/01/27 00:05:20;;;;;;;38.92;19.73;;;2.90;99.90;;;;;;6257897;23;20004;-85
2022/01/27 00:08:36;;;;;;;39.78;19.95;;;2.90;99.90;;;;;;6221237;23;20051;-85
2022/01/27 00:13:10;;;;;;;39.85;20.42;;;2.90;99.90;;;;;;6248448;23;20054;-85
2022/01/27 00:15:38;;;;;;;40.42;19.88;;;2.90;99.90;;;;;;6221163;23;20031;-85
2022/01/27 00:18:12;;;;;;;39.08;20.48;;;2.90;99.90;;;;;;6220902;23;20015;-85
2022/01/27 00:20:38;;;;;;;38.70;19.38;;;2.90;99.90;;;;;;6221118;23;20138;-85
2022/01/27 00:23:03;;;;;;;34.88;18.98;;;2.90;99.90;;;;;;6221113;23;20040;-85
2022/01/27 00:25:29;;;;;;;37.95;18.98;;;2.90;99.90;;;;;;6220985;23;19996;-85
2022/01/27 00:27:55;;;;;;;36.42;19.00;;;2.90;99.90;;;;;;6220963;23;20000;-85
2022/01/27 00:30:20;;;;;;;35.03;19.15;;;2.90;99.90;;;;;;6221096;23;20008;-85
2022/01/27 00:32:46;;;;;;;40.30;20.10;;;2.90;99.90;;;;;;6220831;23;20008;-85
2022/01/27 00:35:12;;;;;;;37.45;19.50;;;2.90;99.90;;;;;;6220960;23;20011;-85
2022/01/27 00:37:38;;;;;;;34.25;19.20;;;2.90;99.90;;;;;;6220820;23;20001;-85
2022/01/27 00:40:06;;;;;;;37.70;19.75;;;2.90;99.90;;;;;;6220945;23;20000;-85
2022/01/27 00:42:32;;;;;;;35.08;19.00;;;2.90;99.90;;;;;;6220843;23;20013;-85
2022/01/27 00:44:58;;;;;;;35.00;18.75;;;2.90;99.90;;;;;;6220826;23;20329;-85
2022/01/27 00:47:24;;;;;;;36.05;19.13;;;2.90;99.90;;;;;;6247458;23;20016;-85
2022/01/27 00:49:50;;;;;;;34.72;17.70;;;2.90;99.90;;;;;;6220640;23;20096;-85
2022/01/27 00:52:24;;;;;;;33.95;19.25;;;2.90;99.90;;;;;;6247572;23;20000;-85
2022/01/27 00:54:52;;;;;;;33.58;18.92;;;2.90;99.90;;;;;;6220649;23;20000;-85
2022/01/27 00:57:40;;;;;;;34.45;18.15;;;2.90;99.90;;;;;;6220621;23;20030;-85
2022/01/27 01:00:07;;;;;;;32.72;18.27;;;2.90;99.90;;;;;;6247102;23;20075;-85
2022/01/27 01:05:51;;;;;;;30.25;17.90;;;2.90;99.90;;;;;;6180608;23;20032;-85
2022/01/27 01:16:24;;;;;;;30.40;17.90;;;2.90;99.90;;;;;;6247357;23;20015;-85
2022/01/27 01:19:01;;;;;;;34.35;18.13;;;2.90;99.90;;;;;;6220338;23;20342;-85
2022/01/27 01:34:24;;;;;;;29.60;17.55;;;2.90;99.90;;;;;;6247862;23;20000;-85
2022/01/27 01:37:04;;;;;;;30.50;17.48;;;2.90;99.90;;;;;;6220209;23;20000;-85
2022/01/27 01:39:33;;;;;;;31.00;17.40;;;2.90;99.90;;;;;;6220420;23;20004;-85
2022/01/27 01:42:00;;;;;;;32.85;17.90;;;2.90;99.90;;;;;;6220316;23;20456;-85
2022/01/27 01:44:27;;;;;;;32.10;17.77;;;2.90;99.90;;;;;;6220273;23;20008;-85
2022/01/27 01:46:54;;;;;;;28.58;17.02;;;2.90;99.90;;;;;;6220290;23;20433;-85
2022/01/27 01:49:22;;;;;;;30.55;17.13;;;2.80;99.90;;;;;;6215002;23;20430;-85
2022/01/27 01:51:49;;;;;;;29.55;17.48;;;2.80;99.90;;;;;;6215805;23;20413;-85
2022/01/27 01:54:15;;;;;;;28.73;17.45;;;2.80;99.90;;;;;;6215086;23;20064;-85
2022/01/27 01:56:43;;;;;;;28.50;17.38;;;2.90;99.90;;;;;;6215088;23;19996;-85
2022/01/27 01:59:09;;;;;;;27.70;16.73;;;2.80;99.90;;;;;;6215159;23;20444;-85
2022/01/27 02:01:36;;;;;;;32.42;17.27;;;2.90;99.90;;;;;;6216595;23;19997;-84
2022/01/27 02:04:06;;;;;;;29.25;16.23;;;2.80;99.90;;;;;;6215060;23;20000;-85
2022/01/27 02:06:41;;;;;;;28.23;16.33;;;2.90;99.90;;;;;;6215059;23;20027;-85
2022/01/27 02:19:55;;;;;;;29.85;16.63;;;2.80;99.90;;;;;;6216856;23;20515;-84
2022/01/27 02:22:22;;;;;;;28.70;17.15;;;2.80;99.90;;;;;;6216436;23;19997;-85
2022/01/27 02:24:49;;;;;;;30.30;17.50;;;2.90;99.90;;;;;;6214913;23;20039;-85
2022/01/27 02:27:18;;;;;;;27.85;16.85;;;2.80;99.90;;;;;;6214892;23;20008;-85
2022/01/27 02:29:44;;;;;;;29.48;17.63;;;2.80;99.90;;;;;;6214819;23;20016;-85
2022/01/27 02:32:12;;;;;;;29.08;16.90;;;2.80;99.90;;;;;;6214816;23;20009;-85
2022/01/27 02:34:38;;;;;;;26.67;16.27;;;2.80;99.90;;;;;;6214823;23;20004;-85
2022/01/27 02:37:04;;;;;;;28.73;16.63;;;2.80;99.90;;;;;;6214713;23;20047;-85
2022/01/27 02:39:30;;;;;;;28.63;17.42;;;2.80;99.90;;;;;;6214732;23;20054;-85
2022/01/27 02:42:19;;;;;;;27.15;16.38;;;2.80;99.90;;;;;;6216253;23;20080;-85
2022/01/27 02:44:53;;;;;;;30.65;16.55;;;2.80;99.90;;;;;;6216981;23;20000;-85
2022/01/27 02:47:20;;;;;;;29.30;18.13;;;2.80;99.90;;;;;;6219708;23;20499;-85
2022/01/27 02:49:47;;;;;;;28.35;16.85;;;2.80;99.90;;;;;;6219730;23;20008;-85
2022/01/27 02:52:13;;;;;;;30.45;17.23;;;2.80;99.90;;;;;;6219550;23;20095;-85
2022/01/27 02:54:39;;;;;;;26.20;16.55;;;2.80;99.90;;;;;;6219576;23;20062;-85
2022/01/27 02:57:05;;;;;;;29.55;17.05;;;2.80;99.90;;;;;;6219254;23;20012;-84
2022/01/27 02:59:30;;;;;;;27.73;16.77;;;2.80;99.90;;;;;;6219554;23;20045;-85
2022/01/27 03:01:56;;;;;;;28.85;16.38;;;2.80;99.90;;;;;;6246738;23;20004;-85
2022/01/27 03:04:23;;;;;;;29.23;16.60;;;2.80;99.90;;;;;;6246416;23;20000;-85
2022/01/27 03:06:49;;;;;;;30.10;16.60;;;2.80;99.90;;;;;;6219436;23;20429;-85
2022/01/27 03:09:16;;;;;;;28.15;16.80;;;2.80;99.90;;;;;;6219432;23;20039;-85
2022/01/27 03:11:44;;;;;;;26.65;16.73;;;2.80;99.90;;;;;;6219472;23;20024;-85
2022/01/27 03:14:12;;;;;;;26.50;16.55;;;2.80;99.90;;;;;;6219396;23;20000;-85
2022/01/27 03:16:38;;;;;;;26.00;16.05;;;2.80;99.90;;;;;;6219446;23;20498;-85
2022/01/27 03:19:04;;;;;;;28.83;16.63;;;2.80;99.90;;;;;;6219413;23;20004;-85
2022/01/27 03:21:30;;;;;;;29.90;16.75;;;2.80;99.90;;;;;;6219286;23;20000;-85
2022/01/27 03:23:55;;;;;;;28.38;16.23;;;2.80;99.90;;;;;;6219353;23;20000;-85
2022/01/27 03:26:22;;;;;;;30.35;17.65;;;2.80;99.90;;;;;;6246173;23;20495;-85
2022/01/27 03:28:48;;;;;;;26.08;15.65;;;2.80;99.90;;;;;;6218797;23;20058;-85
2022/01/27 03:31:14;;;;;;;27.70;16.67;;;2.80;99.90;;;;;;6219325;23;20008;-85
2022/01/27 03:33:41;;;;;;;29.73;17.20;;;2.80;99.90;;;;;;6219294;23;20083;-85
2022/01/27 03:36:07;;;;;;;28.42;16.48;;;2.80;99.90;;;;;;6246141;23;20484;-85
2022/01/27 03:38:33;;;;;;;26.67;16.75;;;2.80;99.90;;;;;;6246038;23;20043;-85
2022/01/27 03:40:59;;;;;;;31.02;17.10;;;2.80;99.90;;;;;;6219221;23;20000;-85
2022/01/27 03:43:25;;;;;;;28.58;17.08;;;2.80;99.90;;;;;;6246109;23;20007;-85
2022/01/27 03:45:51;;;;;;;26.92;15.88;;;2.80;99.90;;;;;;6219248;23;20333;-85
2022/01/27 03:48:16;;;;;;;26.75;16.63;;;2.80;99.90;;;;;;6246052;23;20077;-85
2022/01/27 03:50:42;;;;;;;27.67;16.42;;;2.80;99.90;;;;;;6219390;23;20004;-85
2022/01/27 03:53:08;;;;;;;26.10;16.52;;;2.80;99.90;;;;;;6219288;23;20081;-85
2022/01/27 03:55:34;;;;;;;25.83;15.80;;;2.80;99.90;;;;;;6219335;23;20094;-85
2022/01/27 03:57:59;;;;;;;27.83;16.40;;;2.80;99.90;;;;;;6219432;23;20008;-85
2022/01/27 04:00:25;;;;;;;29.75;17.42;;;2.80;99.90;;;;;;6219295;23;20031;-85
2022/01/27 04:03:03;;;;;;;28.05;16.17;;;2.80;99.90;;;;;;6219285;23;20007;-85
2022/01/27 04:05:34;;;;;;;27.42;16.50;;;2.80;99.90;;;;;;6219152;23;20393;-85
2022/01/27 04:08:00;;;;;;;30.48;17.92;;;2.80;99.90;;;;;;6219250;23;20004;-85
2022/01/27 04:10:26;;;;;;;28.17;16.42;;;2.80;99.90;;;;;;6246036;23;20450;-85
2022/01/27 04:12:52;;;;;;;30.48;16.83;;;2.80;99.90;;;;;;6245992;23;20011;-85
2022/01/27 04:15:17;;;;;;;32.78;16.80;;;2.80;99.90;;;;;;6219197;23;20333;-85
2022/01/27 04:17:43;;;;;;;28.92;17.48;;;2.80;99.90;;;;;;6219057;23;20031;-85
2022/01/27 04:20:09;;;;;;;25.00;15.38;;;2.80;99.90;;;;;;6219154;23;20004;-85
2022/01/27 04:22:35;;;;;;;29.33;16.55;;;2.80;99.90;;;;;;6219456;23;20382;-84
2022/01/27 04:25:00;;;;;;;29.42;16.30;;;2.70;99.90;;;;;;6245942;23;20071;-85
2022/01/27 04:27:31;;;;;;;27.20;16.75;;;2.80;99.90;;;;;;6219150;23;20004;-85
2022/01/27 04:29:57;;;;;;;29.35;17.67;;;2.80;99.90;;;;;;6245930;23;20031;-85
2022/01/27 04:32:28;;;;;;;29.23;17.58;;;2.80;99.90;;;;;;6218996;23;20058;-85
2022/01/27 04:35:00;;;;;;;26.90;15.80;;;2.70;99.90;;;;;;6219124;23;20437;-85
2022/01/27 04:37:27;;;;;;;29.45;17.92;;;2.70;99.90;;;;;;6245824;23;20050;-85
2022/01/27 04:40:02;;;;;;;29.75;17.52;;;2.70;99.90;;;;;;6219993;23;20028;-85
2022/01/27 04:43:35;;;;;;;28.77;17.02;;;2.70;99.90;;;;;;6247742;23;19992;-85
2022/01/27 04:45:28;;;;;;;31.23;17.13;;;2.70;99.90;;;;;;6222085;23;20000;-85
2022/01/27 04:48:03;;;;;;;26.52;15.48;;;2.70;99.90;;;;;;6215541;23;20480;-85
2022/01/27 04:50:29;;;;;;;30.55;16.95;;;2.70;99.90;;;;;;6215785;23;20337;-84
2022/01/27 04:52:57;;;;;;;31.13;17.73;;;2.70;99.90;;;;;;6215573;23;20053;-85
2022/01/27 04:55:24;;;;;;;33.00;18.13;;;2.70;99.90;;;;;;6215694;23;20054;-85
2022/01/27 04:58:03;;;;;;;30.00;17.67;;;2.70;99.90;;;;;;6215605;23;20000;-85
2022/01/27 05:00:29;;;;;;;32.13;18.48;;;2.70;99.90;;;;;;6217621;23;19999;-85
2022/01/27 05:02:58;;;;;;;31.30;18.02;;;2.70;99.90;;;;;;6215588;23;20333;-85
2022/01/27 05:05:24;;;;;;;29.50;17.63;;;2.70;99.90;;;;;;6215558;23;20067;-85
2022/01/27 05:07:56;;;;;;;32.83;17.83;;;2.70;99.90;;;;;;6215630;23;20433;-85
2022/01/27 05:10:26;;;;;;;32.03;18.48;;;2.70;99.90;;;;;;6216696;23;20325;-85
2022/01/27 05:12:55;;;;;;;29.27;17.02;;;2.70;99.90;;;;;;6215591;23;20503;-85
2022/01/27 05:15:23;;;;;;;31.70;18.25;;;2.70;99.90;;;;;;6215577;23;20009;-85
2022/01/27 05:17:51;;;;;;;29.13;17.80;;;2.70;99.90;;;;;;6215463;23;20112;-85
2022/01/27 05:20:16;;;;;;;32.25;18.23;;;2.70;99.90;;;;;;6215494;23;20036;-85
2022/01/27 05:22:42;;;;;;;31.38;18.17;;;2.70;99.90;;;;;;6215514;23;20001;-85
2022/01/27 05:25:08;;;;;;;35.33;18.75;;;2.70;99.90;;;;;;6215526;23;20080;-85
2022/01/27 05:27:33;;;;;;;31.52;17.98;;;2.70;99.90;;;;;;6215408;23;20001;-85
2022/01/27 05:29:59;;;;;;;36.40;18.92;;;2.70;99.90;;;;;;6215427;23;20008;-85
2022/01/27 05:32:25;;;;;;;30.92;18.65;;;2.70;99.90;;;;;;6216962;23;20434;-85
2022/01/27 05:34:50;;;;;;;32.63;18.45;;;2.70;99.90;;;;;;6216843;23;19996;-85
2022/01/27 05:37:16;;;;;;;33.42;18.63;;;2.70;99.90;;;;;;6215270;23;20345;-85
2022/01/27 05:39:42;;;;;;;30.48;18.08;;;2.70;99.90;;;;;;6215387;23;20436;-85
2022/01/27 05:42:07;;;;;;;35.08;18.33;;;2.70;99.90;;;;;;6215296;23;20035;-85
2022/01/27 05:44:33;;;;;;;32.67;18.95;;;2.70;99.90;;;;;;6215346;23;20449;-86
2022/01/27 05:46:59;;;;;;;33.20;18.25;;;2.70;99.90;;;;;;6215281;23;19997;-85
2022/01/27 05:49:24;;;;;;;35.42;18.90;;;2.70;99.90;;;;;;6215086;23;20158;-85
2022/01/27 05:51:50;;;;;;;30.27;18.15;;;2.70;99.90;;;;;;6214733;23;20071;-85
2022/01/27 05:54:16;;;;;;;32.40;18.30;;;2.70;99.90;;;;;;6216789;23;20007;-85
2022/01/27 05:56:42;;;;;;;31.27;17.92;;;2.70;99.90;;;;;;6215145;23;20004;-86
2022/01/27 05:59:07;;;;;;;32.63;19.00;;;2.70;99.90;;;;;;6215036;23;20335;-86
2022/01/27 06:01:33;;;;;;;33.13;19.45;;;2.70;99.90;;;;;;6215038;23;20063;-85
2022/01/27 06:03:59;;;;;;;33.90;18.80;;;2.70;99.90;;;;;;6215103;23;20072;-85
2022/01/27 06:06:24;;;;;;;33.33;18.77;;;2.70;99.90;;;;;;6214887;23;20147;-86
2022/01/27 06:08:50;;;;;;;32.65;18.02;;;2.70;99.90;;;;;;6214985;23;20009;-85
2022/01/27 06:11:16;;;;;;;35.38;19.15;;;2.70;99.90;;;;;;6216394;23;20004;-85
2022/01/27 06:13:43;;;;;;;33.08;19.50;;;2.70;99.90;;;;;;6215025;23;20425;-85
2022/01/27 06:16:11;;;;;;;35.53;18.33;;;2.70;99.90;;;;;;6215031;23;20456;-85
2022/01/27 06:18:37;;;;;;;30.67;17.40;;;2.70;99.90;;;;;;6214821;23;20032;-85
2022/01/27 06:21:05;;;;;;;32.22;18.40;;;2.70;99.90;;;;;;6216514;23;20513;-86
2022/01/27 06:23:34;;;;;;;34.20;18.95;;;2.70;99.90;;;;;;6214937;23;20000;-85
2022/01/27 06:26:01;;;;;;;33.53;17.92;;;2.70;99.90;;;;;;6216444;23;20000;-85
2022/01/27 06:28:27;;;;;;;32.00;18.10;;;2.70;99.90;;;;;;6214902;23;20383;-85
2022/01/27 06:30:53;;;;;;;33.60;18.75;;;2.70;99.90;;;;;;6214824;23;20051;-86
2022/01/27 06:33:19;;;;;;;35.83;18.88;;;2.70;99.90;;;;;;6214824;23;20460;-86
2022/01/27 06:35:44;;;;;;;34.45;19.15;;;2.70;99.90;;;;;;6214785;23;20008;-86
2022/01/27 06:38:10;;;;;;;32.67;18.65;;;2.70;99.90;;;;;;6214634;23;20084;-86
2022/01/27 06:40:36;;;;;;;32.42;19.33;;;2.70;99.90;;;;;;6214675;23;20001;-86
2022/01/27 06:43:02;;;;;;;36.10;18.75;;;2.70;99.90;;;;;;6216315;23;20441;-85
2022/01/27 06:45:28;;;;;;;33.28;18.42;;;2.70;99.90;;;;;;6214660;23;20008;-85
2022/01/27 06:47:54;;;;;;;34.25;19.15;;;2.70;99.90;;;;;;6226958;23;20063;-85
2022/01/27 06:50:20;;;;;;;34.65;18.15;;;2.70;99.90;;;;;;6219551;23;20009;-85
2022/01/27 06:52:45;;;;;;;33.40;18.80;;;2.70;99.90;;;;;;6246499;23;20436;-85
2022/01/27 06:55:14;;;;;;;33.67;19.15;;;2.70;99.90;;;;;;6219676;23;20004;-85
2022/01/27 06:57:40;;;;;;;31.45;17.75;;;2.70;99.90;;;;;;6219608;23;20004;-85
2022/01/27 07:00:08;;;;;;;32.95;18.48;;;2.70;99.90;;;;;;6219438;23;20455;-85
2022/01/27 07:02:34;;;;;;;32.88;17.75;;;2.70;99.90;;;;;;6219393;23;20000;-85
2022/01/27 07:05:00;;;;;;;33.95;18.83;;;2.60;99.90;;;;;;6219434;23;20035;-85
2022/01/27 07:07:25;;;;;;;29.77;17.48;;;2.70;99.90;;;;;;6219443;23;20012;-85
2022/01/27 07:09:51;;;;;;;31.13;17.65;;;2.60;99.90;;;;;;6219523;23;20014;-85
2022/01/27 07:12:17;;;;;;;30.10;17.98;;;2.60;99.90;;;;;;6219468;23;20004;-85
2022/01/27 07:14:43;;;;;;;32.83;19.10;;;2.60;99.90;;;;;;6219750;23;20054;-85
2022/01/27 07:17:08;;;;;;;32.17;17.73;;;2.60;99.90;;;;;;6219400;23;20074;-85
2022/01/27 07:19:34;;;;;;;36.75;18.75;;;2.60;99.90;;;;;;6246309;23;20106;-86
2022/01/27 07:22:00;;;;;;;33.08;18.35;;;2.60;99.90;;;;;;6219401;23;20007;-85
2022/01/27 07:24:26;;;;;;;32.55;18.55;;;2.60;99.90;;;;;;6246257;23;20000;-85
2022/01/27 07:26:52;;;;;;;30.73;17.73;;;2.60;99.90;;;;;;6219425;23;20341;-85
2022/01/27 07:29:18;;;;;;;31.45;17.17;;;2.60;99.90;;;;;;6219303;23;20151;-85
2022/01/27 07:31:43;;;;;;;34.90;19.50;;;2.60;99.90;;;;;;6246212;23;20329;-85
2022/01/27 07:34:09;;;;;;;32.85;18.02;;;2.60;99.90;;;;;;6219395;23;20000;-85
2022/01/27 07:36:35;;;;;;;34.05;19.05;;;2.60;99.90;;;;;;6246165;23;20084;-85
2022/01/27 07:39:01;;;;;;;29.83;17.58;;;2.60;99.90;;;;;;6219176;23;20014;-85
2022/01/27 07:41:27;;;;;;;34.38;17.92;;;2.60;99.90;;;;;;6219130;23;20000;-85
2022/01/27 07:43:53;;;;;;;33.63;18.15;;;2.60;99.90;;;;;;6219149;23;20054;-85
2022/01/27 07:46:18;;;;;;;34.83;18.52;;;2.60;99.90;;;;;;6219349;23;20069;-85
2022/01/27 07:48:44;;;;;;;33.28;18.50;;;2.60;99.90;;;;;;6245945;23;20020;-85
2022/01/27 07:51:10;;;;;;;33.28;18.30;;;2.60;99.90;;;;;;6219186;23;20057;-85
2022/01/27 07:53:38;;;;;;;36.08;19.08;;;2.60;99.90;;;;;;6219246;23;20455;-85
2022/01/27 07:56:04;;;;;;;32.15;18.38;;;2.60;99.90;;;;;;6219194;23;20008;-85
2022/01/27 07:58:31;;;;;;;30.67;18.00;;;2.70;99.90;;;;;;6219051;23;20015;-85
2022/01/27 08:00:58;;;;;;;34.33;17.77;;;2.60;99.90;;;;;;6219234;23;20004;-85
2022/01/27 08:03:24;;;;;;;32.97;17.98;;;2.60;99.90;;;;;;6219238;23;20028;-85
2022/01/27 08:05:50;;;;;;;33.63;18.50;;;2.60;99.90;;;;;;6219057;23;20000;-85
2022/01/27 08:08:16;;;;;;;36.63;19.27;;;2.60;99.90;;;;;;6246052;23;20083;-85
2022/01/27 08:10:42;;;;;;;33.60;18.13;;;2.60;99.90;;;;;;6219238;23;20008;-85
2022/01/27 08:13:09;;;;;;;33.40;18.10;;;2.70;99.90;;;;;;6219184;23;20058;-85
2022/01/27 08:15:35;;;;;;;33.67;17.58;;;2.70;99.90;;;;;;6220736;23;20000;-85
2022/01/27 08:18:02;;;;;;;34.88;17.63;;;2.70;99.90;;;;;;6247873;23;20058;-85
2022/01/27 08:20:28;;;;;;;31.35;16.83;;;2.70;99.90;;;;;;6221110;23;20083;-85
2022/01/27 08:22:55;;;;;;;31.25;17.60;;;2.70;99.90;;;;;;6221156;23;20459;-85
2022/01/27 08:25:22;;;;;;;29.77;16.67;;;2.70;99.90;;;;;;6221089;23;20421;-85
2022/01/27 08:27:52;;;;;;;32.70;17.35;;;2.70;99.90;;;;;;6248228;23;20079;-85
2022/01/27 08:30:19;;;;;;;31.40;16.42;;;2.70;99.90;;;;;;6221028;23;20011;-85
2022/01/27 08:35:14;;;;;;;29.75;17.08;;;2.70;99.90;;;;;;6248366;23;20011;-85
2022/01/27 08:37:40;;;;;;;34.30;16.70;;;2.70;99.90;;;;;;6247717;23;20004;-86
2022/01/27 08:40:07;;;;;;;29.10;15.48;;;2.70;99.90;;;;;;6220943;23;19996;-85
2022/01/27 08:42:32;;;;;;;29.98;16.25;;;2.70;99.90;;;;;;6220983;23;20027;-87
2022/01/27 08:44:58;;;;;;;28.20;15.18;;;2.70;99.90;;;;;;6220859;23;20007;-86
2022/01/27 08:47:24;;;;;;;30.02;16.52;;;2.80;99.90;;;;;;6247493;23;20016;-86
2022/01/27 08:49:50;;;;;;;28.52;15.25;;;2.80;99.90;;;;;;6220885;23;20004;-85
2022/01/27 08:52:15;;;;;;;29.23;15.77;;;2.80;99.90;;;;;;6221097;23;20011;-86
2022/01/27 08:54:42;;;;;;;32.38;16.80;;;2.80;99.90;;;;;;6220674;23;20008;-85
2022/01/27 08:57:08;;;;;;;30.48;15.88;;;2.80;99.90;;;;;;6220650;23;20011;-85
2022/01/27 08:59:34;;;;;;;28.83;16.45;;;2.90;99.90;;;;;;6220745;23;20001;-85
2022/01/27 09:02:00;;;;;;;29.35;15.98;;;2.90;99.90;;;;;;6220662;23;20384;-86
2022/01/27 09:04:25;;;;;;;33.65;16.60;;;3.00;99.90;;;;;;6247475;23;20314;-86
2022/01/27 09:06:51;;;;;;;32.70;16.58;;;3.00;99.90;;;;;;6220463;23;20039;-86
2022/01/27 09:09:17;;;;;;;32.20;16.10;;;3.00;99.90;;;;;;6220714;23;20004;-85
2022/01/27 09:11:46;;;;;;;29.52;15.48;;;3.00;99.90;;;;;;6220624;23;20000;-85
2022/01/27 09:14:13;;;;;;;30.50;16.55;;;3.00;99.90;;;;;;6220556;23;20070;-85
2022/01/27 09:16:39;;;;;;;29.42;15.77;;;3.00;99.90;;;;;;6220968;23;20000;-85
2022/01/27 09:19:05;;;;;;;28.23;16.05;;;3.00;99.90;;;;;;6220396;23;20019;-85
2022/01/27 09:21:45;;;;;;;27.48;14.55;;;3.00;99.90;;;;;;6220489;23;20372;-85
2022/01/27 09:24:15;;;;;;;32.53;15.18;;;3.30;99.90;;;;;;6220529;23;20023;-86
2022/01/27 09:29:13;;;;;;;30.38;15.20;;;4.90;99.90;;;;;;6247811;23;20005;-86
2022/01/27 09:31:39;;;;;;;31.80;16.25;;;5.20;99.90;;;;;;6220433;23;20058;-86
2022/01/27 09:34:05;;;;;;;28.92;15.73;;;5.70;99.90;;;;;;6220404;23;20012;-85
2022/01/27 09:36:30;;;;;;;26.30;14.35;;;6.60;99.90;;;;;;6220321;23;20436;-86
2022/01/27 09:38:56;;;;;;;26.10;14.63;;;7.50;99.90;;;;;;6220312;23;20008;-86
2022/01/27 09:41:24;;;;;;;28.05;15.02;;;8.10;99.90;;;;;;6220311;23;20078;-86
2022/01/27 09:43:53;;;;;;;24.83;14.02;;;8.80;99.90;;;;;;6247169;23;19993;-86
2022/01/27 09:46:23;;;;;;;26.17;14.68;;;9.20;99.90;;;;;;6247442;23;20000;-86
2022/01/27 09:48:51;;;;;;;25.58;14.77;;;9.40;99.90;;;;;;6220113;23;20075;-86
2022/01/27 09:53:50;;;;;;;24.80;14.20;;;7.90;99.90;;;;;;6247215;23;20095;-86
2022/01/27 09:56:17;;;;;;;27.27;14.90;;;6.90;99.90;;;;;;6220226;23;20335;-86
2022/01/27 09:58:43;;;;;;;26.63;14.35;;;6.10;99.90;;;;;;6220009;23;20442;-85
2022/01/27 10:01:09;;;;;;;25.00;14.82;;;5.60;99.90;;;;;;6220189;23;20007;-86
2022/01/27 10:04:09;;;;;;;28.42;14.93;;;5.20;99.90;;;;;;6247308;23;20004;-87
2022/01/27 10:06:36;;;;;;;29.05;14.80;;;4.80;99.90;;;;;;6220091;23;20005;-85
2022/01/27 10:09:12;;;;;;;27.48;14.77;;;4.40;99.90;;;;;;6220032;23;20004;-85
2022/01/27 10:11:38;;;;;;;26.63;15.35;;;4.30;99.90;;;;;;6247248;23;20073;-86
2022/01/27 10:14:18;;;;;;;26.75;13.50;;;4.10;99.90;;;;;;6219993;23;20345;-86
2022/01/27 10:16:44;;;;;;;25.50;14.32;;;4.00;99.90;;;;;;6220041;23;20318;-86
2022/01/27 10:19:11;;;;;;;27.88;14.82;;;3.80;99.90;;;;;;6219834;23;20008;-85
2022/01/27 10:21:38;;;;;;;28.45;15.00;;;3.80;99.90;;;;;;6219910;23;20433;-85
2022/01/27 10:24:26;;;;;;;28.20;14.82;;;3.70;99.90;;;;;;6247119;23;20006;-85
2022/01/27 10:27:34;;;;;;;27.02;14.15;;;3.60;99.90;;;;;;6219942;23;20001;-85
2022/01/27 10:30:35;;;;;;;30.40;14.57;;;3.50;99.90;;;;;;6219878;23;20426;-84
2022/01/27 10:32:50;;;;;;;28.25;15.82;;;3.50;99.90;;;;;;6246435;23;20027;-84
2022/01/27 10:35:19;;;;;;;27.75;14.75;;;3.40;99.90;;;;;;6219816;23;20086;-84
2022/01/27 10:38:07;;;;;;;29.52;15.63;;;3.40;99.90;;;;;;6219388;23;20004;-85
2022/01/27 10:40:37;;;;;;;28.90;15.85;;;3.40;99.90;;;;;;6219862;23;20314;-85
2022/01/27 10:43:08;;;;;;;25.88;14.98;;;3.40;99.90;;;;;;6219813;23;20337;-85
2022/01/27 10:45:35;;;;;;;31.13;15.60;;;3.30;99.90;;;;;;6219693;23;20414;-85
2022/01/27 10:48:19;;;;;;;28.13;15.63;;;3.30;99.90;;;;;;6219413;23;20020;-84
2022/01/27 10:53:40;;;;;;;28.30;14.98;;;3.30;99.90;;;;;;6257103;23;20004;-85
2022/01/27 10:56:07;;;;;;;30.88;15.70;;;3.30;99.90;;;;;;6219662;23;20086;-84
2022/01/27 10:58:34;;;;;;;28.33;14.80;;;3.20;99.90;;;;;;6219504;23;20007;-85
2022/01/27 11:01:00;;;;;;;29.92;16.60;;;3.20;99.90;;;;;;6219566;23;20341;-84
2022/01/27 11:03:28;;;;;;;27.42;15.68;;;3.20;99.90;;;;;;6219639;23;20341;-84
2022/01/27 11:05:56;;;;;;;29.58;15.35;;;3.20;99.90;;;;;;6219420;23;20087;-84
2022/01/27 11:08:24;;;;;;;28.02;14.68;;;3.20;99.90;;;;;;6219529;23;20058;-84
2022/01/27 11:10:50;;;;;;;29.00;15.55;;;3.20;99.90;;;;;;6246361;23;20433;-83
2022/01/27 11:13:19;;;;;;;27.20;15.38;;;3.20;99.90;;;;;;6219476;23;20008;-85
2022/01/27 11:15:45;;;;;;;27.83;14.90;;;3.10;99.90;;;;;;6219525;23;20119;-86
2022/01/27 11:18:13;;;;;;;28.77;14.90;;;3.10;99.90;;;;;;6219387;23;20008;-85
2022/01/27 11:20:57;;;;;;;25.30;14.80;;;3.20;99.90;;;;;;6246283;23;19996;-84
2022/01/27 11:26:12;;;;;;;;;;;3.10;99.90;;;;;;6257377;23;20004;-84
2022/01/27 11:28:44;;;;;;;26.50;14.15;;;3.20;99.90;;;;;;6219382;23;20275;-84
2022/01/27 11:31:18;;;;;;;28.25;14.18;;;3.10;99.90;;;;;;6220137;23;20012;-84
2022/01/27 11:33:57;;;;;;;28.42;14.52;;;3.10;99.90;;;;;;6220070;23;20329;-85
2022/01/27 11:36:24;;;;;;;27.27;14.77;;;3.10;99.90;;;;;;6219441;23;20035;-84
2022/01/27 11:38:50;;;;;;;27.83;14.80;;;3.10;99.90;;;;;;6219269;23;20337;-85
2022/01/27 11:41:38;;;;;;;29.40;15.80;;;3.10;99.90;;;;;;6219295;23;20012;-85
2022/01/27 11:44:24;;;;;;;28.17;14.50;;;3.10;99.90;;;;;;6246115;23;20057;-85
2022/01/27 11:47:12;;;;;;;26.80;14.50;;;3.10;99.90;;;;;;6246100;23;20421;-85
2022/01/27 11:50:05;;;;;;;28.75;15.00;;;3.10;99.90;;;;;;6247407;23;20007;-85
2022/01/27 11:52:50;;;;;;;23.80;13.88;;;3.10;99.90;;;;;;6222863;23;20377;-85
2022/01/27 11:55:25;;;;;;;25.60;14.65;;;3.10;99.90;;;;;;6221418;23;20083;-85
2022/01/27 11:57:51;;;;;;;30.45;14.82;;;3.10;99.90;;;;;;6221284;23;20058;-85
2022/01/27 12:00:19;;;;;;;24.70;14.13;;;3.10;99.90;;;;;;6221329;23;20004;-85
2022/01/27 12:03:04;;;;;;;27.65;14.77;;;3.10;99.90;;;;;;6221273;23;20004;-85
2022/01/27 12:05:29;;;;;;;26.95;14.00;;;3.10;99.90;;;;;;6221112;23;20486;-85
2022/01/27 12:08:13;;;;;;;28.45;14.95;;;3.10;99.90;;;;;;6221248;23;20103;-85
2022/01/27 12:10:44;;;;;;;24.77;14.07;;;3.10;99.90;;;;;;6248423;23;20444;-85
2022/01/27 12:13:42;;;;;;;23.88;14.02;;;3.10;99.90;;;;;;6248454;23;20000;-85
2022/01/27 12:19:08;;;;;;;26.27;14.43;;;3.10;99.90;;;;;;6258470;23;20096;-85
2022/01/27 12:21:55;;;;;;;24.20;13.77;;;3.20;99.90;;;;;;6248379;23;19996;-85
2022/01/27 12:24:29;;;;;;;27.38;14.38;;;3.20;99.90;;;;;;6221164;23;20001;-85
2022/01/27 12:26:55;;;;;;;26.70;14.27;;;3.20;99.90;;;;;;6221171;23;20425;-85
2022/01/27 12:29:22;;;;;;;24.60;13.77;;;3.20;99.90;;;;;;6221098;23;20004;-86
2022/01/27 12:31:49;;;;;;;27.25;14.43;;;3.20;99.90;;;;;;6247886;23;20000;-86
2022/01/27 12:34:14;;;;;;;24.83;13.65;;;3.30;99.90;;;;;;6220998;23;20047;-86
2022/01/27 12:37:01;;;;;;;25.98;14.07;;;3.30;99.90;;;;;;6247770;23;20000;-86
2022/01/27 12:39:38;;;;;;;25.48;14.32;;;3.30;99.90;;;;;;6220997;23;20008;-87
2022/01/27 12:42:07;;;;;;;26.55;14.00;;;3.40;99.90;;;;;;6221028;23;20059;-88
2022/01/27 12:44:34;;;;;;;23.42;12.82;;;3.40;99.90;;;;;;6221008;23;20000;-88
2022/01/27 12:47:06;;;;;;;25.02;13.30;;;3.40;99.90;;;;;;6248236;23;20444;-89
2022/01/27 12:49:36;;;;;;;25.33;13.10;;;3.40;99.90;;;;;;6221061;23;20012;-87
2022/01/27 12:52:05;;;;;;;23.23;12.70;;;3.40;99.90;;;;;;6220851;23;20455;-87
2022/01/27 12:54:31;;;;;;;22.08;12.40;;;3.40;99.90;;;;;;6221029;23;20437;-89
2022/01/27 12:56:56;;;;;;;26.38;13.40;;;3.40;99.90;;;;;;6247733;23;20007;-89
2022/01/27 12:59:22;;;;;;;23.13;13.13;;;3.30;99.90;;;;;;6220827;23;20004;-88
2022/01/27 13:01:58;;;;;;;22.00;13.10;;;3.40;99.90;;;;;;6220592;23;20034;-88
2022/01/27 13:04:26;;;;;;;26.67;12.75;;;3.40;99.90;;;;;;6220724;23;20000;-87
2022/01/27 13:06:54;;;;;;;23.38;12.45;;;3.40;99.90;;;;;;6220787;23;20057;-88
2022/01/27 13:09:20;;;;;;;24.05;12.52;;;3.40;99.90;;;;;;6220717;23;20433;-87
2022/01/27 13:11:47;;;;;;;22.73;13.15;;;3.40;99.90;;;;;;6220809;23;20015;-87
2022/01/27 13:14:13;;;;;;;27.08;13.05;;;3.40;99.90;;;;;;6220777;23;20448;-87
2022/01/27 13:16:47;;;;;;;22.65;12.30;;;3.40;99.90;;;;;;6220752;23;20008;-87
2022/01/27 13:21:58;;;;;;;22.67;13.02;;;3.40;99.90;;;;;;6257894;23;20004;-88
2022/01/27 13:24:23;;;;;;;20.92;12.68;;;3.40;99.90;;;;;;6220763;23;20340;-88
2022/01/27 13:27:02;;;;;;;23.90;12.60;;;3.40;99.90;;;;;;6220655;23;20006;-88
2022/01/27 13:29:29;;;;;;;22.23;11.93;;;3.50;99.90;;;;;;6220760;23;20451;-87
2022/01/27 13:31:56;;;;;;;19.85;11.55;;;3.50;99.90;;;;;;6220574;23;20074;-89
2022/01/27 13:34:22;;;;;;;20.00;11.80;;;3.50;99.90;;;;;;6220529;23;20008;-87
2022/01/27 13:36:58;;;;;;;23.05;11.95;;;3.60;99.90;;;;;;6220492;23;20078;-87
2022/01/27 13:41:52;;;;;;;18.85;10.50;;;3.60;99.90;;;;;;6247841;23;20004;-87
2022/01/27 13:44:20;;;;;;;19.50;11.20;;;3.70;99.90;;;;;;6220354;23;19996;-87
2022/01/27 13:46:55;;;;;;;18.77;10.07;;;3.60;99.90;;;;;;6220404;23;20000;-88
2022/01/27 13:49:27;;;;;;;17.80;10.50;;;3.60;99.90;;;;;;6220224;23;20024;-87